• Join FlightAware (Why Join?)
  • Login
  • US Flag 
06:31AM EDT


 

Airport Tracker/Info


-or-


 

Live Flight TrackerFlight Track Log ✈ UPS2844 ✈ 09-Sep-2013 ✈ KSDF - KSLC

Flight Track Log - Related Links

Times and Time Zones

All times are in EDT time to prevent confusion due to time zone crossing. See the UPS2844 flight status page for this flight to view local times or setup timezone preferences in your user account.

Time Position Orientation Groundspeed Altitude Reporting Facility
EDT Latitude Longitude Course Direction KTS MPH feet Rate Location/Type
03:51PM 38.1710 -85.7430 164° South 160 184  Level FlightAware
03:52PM 38.1570 -85.7390 167° South 163 188 1,100 3,000 Climbing FlightAware
03:52PM 38.1370 -85.7330 167° South 183 211 2,100 1,800 Climbing FlightAware
03:52PM 38.1180 -85.7330 180° South 218 251 2,500 1,500 Climbing FlightAware
03:53PM 38.1050 -85.7340 183° South 228 262 2,900 2,280 Climbing FlightAware
03:53PM 38.0990 -85.7350 187° South 229 264 3,200 2,220 Climbing FlightAware
03:53PM 38.0880 -85.7400 200° South 237 273 3,500 1,740 Climbing FlightAware
03:53PM 38.0830 -85.7440 212° Southwest 239 275 3,700 1,560 Climbing FlightAware
03:53PM 38.0770 -85.7530 230° Southwest 246 283 3,900 1,500 Climbing FlightAware
03:53PM 38.0750 -85.7580 243° Southwest 252 290 4,000 1,380 Climbing FlightAware
03:53PM 38.0720 -85.7720 255° West 264 304 4,200 2,100 Climbing FlightAware
03:54PM 38.0750 -85.8030 277° West 258 297 5,200 2,700 Climbing FlightAware
03:54PM 38.0770 -85.8480 273° West 274 315 6,400 3,000 Climbing FlightAware
03:54PM 38.0760 -85.8730 267° West 275 316 7,200 2,220 Climbing FlightAware
03:55PM 38.0740 -85.9060 266° West 288 331 7,800 2,460 Climbing FlightAware
03:55PM 38.0730 -85.9400 268° West 286 329 8,800 2,880 Climbing FlightAware
03:55PM 38.0710 -85.9700 265° West 286 329 9,600 1,920 Climbing FlightAware
03:56PM 38.0670 -86.0360 266° West 312 359 10,600 1,320 Climbing FlightAware
03:57PM 38.0630 -86.1040 266° West 351 404 11,300 1,800 Climbing FlightAware
03:57PM 38.0590 -86.1750 252° West 369 425 12,700 2,640 Climbing FlightAware
03:58PM 38.0540 -86.2440 265° West 381 438 14,200 2,760 Climbing FlightAware
03:59PM 38.0450 -86.3730 265° West 400 460 16,800 2,880 Climbing FlightAware
03:59PM 38.0390 -86.4480 264° West 407 468 18,400 3,000 Climbing FlightAware
04:00PM 38.0320 -86.5370 264° West 410 472 20,200 2,640 Climbing FlightAware
04:00PM 38.0240 -86.6270 264° West 418 481 21,700 2,340 Climbing FlightAware
04:01PM 38.0190 -86.6990 265° West 425 489 22,800 2,100 Climbing FlightAware
04:01PM 38.0110 -86.7920 264° West 433 498 24,100 1,980 Climbing FlightAware
04:02PM 38.0040 -86.8840 265° West 441 507 25,300 1,920 Climbing FlightAware
04:03PM 37.9970 -86.9680 264° West 448 516 26,300 1,800 Climbing FlightAware
04:03PM 37.9890 -87.0610 264° West 456 525 27,400 1,380 Climbing FlightAware
04:04PM 37.9810 -87.1580 264° West 466 536 28,000 1,440 Climbing FlightAware
04:04PM 37.9670 -87.2610 260° West 469 540 29,200 2,040 Climbing FlightAware
04:05PM 37.9470 -87.3440 253° West 465 535 30,400 2,160 Climbing FlightAware
04:06PM 37.9290 -87.4400 257° West 461 531 31,700 1,560 Climbing FlightAware
04:06PM 37.9310 -87.5350 272° West 464 534 32,300 1,560 Climbing FlightAware
04:07PM 37.9380 -87.6320 275° West 455 524 33,600 1,440 Climbing FlightAware
04:07PM 37.9450 -87.7150 276° West 455 524 34,000 300 Climbing FlightAware
04:08PM 37.9520 -87.8130 275° West 454 522 34,000  Level FlightAware
04:08PM 37.9590 -87.9070 275° West 452 520 34,000  Level FlightAware
04:09PM 37.9660 -87.9900 276° West 451 519 34,000  Level FlightAware
04:10PM 37.9730 -88.0850 275° West 450 518 34,000  Level FlightAware
04:10PM 37.9800 -88.1820 275° West 450 518 34,000  Level FlightAware
04:10PM 37.9830 -88.2240 275° West 450 518 34,000  Level FlightAware
04:11PM 37.9930 -88.3590 275° West 449 517 34,000  Level FlightAware
04:12PM 37.9990 -88.4490 275° West 449 517 34,000  Level FlightAware
04:12PM 38.0050 -88.5340 275° West 448 516 34,000  Level FlightAware
04:13PM 38.0120 -88.6310 275° West 448 516 34,000  Level FlightAware
04:14PM 38.0190 -88.7260 275° West 449 517 34,000  Level FlightAware
04:14PM 38.0250 -88.8120 275° West 450 518 34,000  Level FlightAware
04:15PM 38.0310 -88.9040 275° West 451 519 34,000  Level FlightAware
04:15PM 38.0370 -88.9960 275° West 451 519 34,000  Level FlightAware
04:16PM 38.0430 -89.0830 275° West 452 520 34,000  Level FlightAware
04:17PM 38.0490 -89.1790 275° West 452 520 34,000  Level FlightAware
04:17PM 38.0550 -89.2750 275° West 452 520 34,000  Level FlightAware
04:18PM 38.0690 -89.3660 281° West 450 518 34,000  Level FlightAware
04:18PM 38.1000 -89.4350 300° West 449 517 34,000  Level FlightAware
04:19PM 38.1460 -89.5170 306° West 449 517 34,000  Level FlightAware
04:19PM 38.1910 -89.5960 306° West 449 517 34,000  Level FlightAware
04:20PM 38.2310 -89.6670 306° West 449 517 34,000  Level FlightAware
04:21PM 38.2750 -89.7450 306° West 448 516 34,000  Level FlightAware
04:21PM 38.3130 -89.8130 305° West 449 517 34,000  Level FlightAware
04:22PM 38.3470 -89.8750 305° West 449 517 34,000  Level FlightAware
04:22PM 38.4010 -89.9720 305° West 448 516 34,000  Level FlightAware
04:23PM 38.4490 -90.0580 305° West 447 514 34,000  Level FlightAware
04:24PM 38.4950 -90.1370 307° West 445 512 34,000  Level FlightAware
04:24PM 38.5280 -90.2050 302° West 443 510 34,000  Level FlightAware
04:25PM 38.5490 -90.2880 288° West 443 510 34,000  Level FlightAware
04:25PM 38.5660 -90.3900 282° West 442 509 34,000  Level FlightAware
04:26PM 38.5800 -90.4740 282° West 441 507 34,000  Level FlightAware
04:27PM 38.5960 -90.5730 282° West 439 505 34,000  Level FlightAware
04:27PM 38.6090 -90.6570 281° West 439 505 34,000  Level FlightAware
04:28PM 38.6240 -90.7470 282° West 438 504 34,000  Level FlightAware
04:28PM 38.6390 -90.8410 282° West 438 504 34,000  Level FlightAware
04:29PM 38.6520 -90.9240 281° West 437 503 34,000  Level FlightAware
04:29PM 38.6670 -91.0130 282° West 437 503 34,000  Level FlightAware
04:30PM 38.6800 -91.1010 281° West 438 504 34,000  Level FlightAware
04:31PM 38.6940 -91.1900 281° West 438 504 34,000  Level FlightAware
04:31PM 38.7080 -91.2770 282° West 439 505 34,000  Level FlightAware
04:32PM 38.7240 -91.3770 282° West 439 505 34,000  Level FlightAware
04:32PM 38.7360 -91.4550 281° West 439 505 34,000  Level FlightAware
04:33PM 38.7500 -91.5470 281° West 440 506 34,000  Level FlightAware
04:34PM 38.7640 -91.6420 281° West 440 506 34,000  Level FlightAware
04:34PM 38.7780 -91.7310 281° West 440 506 34,000  Level FlightAware
04:35PM 38.7910 -91.8140 281° West 440 506 34,000  Level FlightAware
04:35PM 38.8040 -91.9040 281° West 440 506 34,000  Level FlightAware
04:36PM 38.8180 -91.9960 281° West 440 506 34,000  Level FlightAware
04:37PM 38.8320 -92.0910 281° West 440 506 34,000  Level FlightAware
04:37PM 38.8440 -92.1740 281° West 440 506 34,000  Level FlightAware
04:38PM 38.8580 -92.2640 281° West 440 506 34,000  Level FlightAware
04:38PM 38.8720 -92.3590 281° West 440 506 34,000  Level FlightAware
04:39PM 38.8840 -92.4430 280° West 441 507 34,000  Level FlightAware
04:39PM 38.8960 -92.5300 280° West 441 507 34,000  Level FlightAware
04:40PM 38.9100 -92.6250 281° West 440 506 34,000  Level FlightAware
04:41PM 38.9240 -92.7190 281° West 440 506 34,000  Level FlightAware
04:41PM 38.9360 -92.8030 280° West 439 505 34,000  Level FlightAware
04:42PM 38.9480 -92.8930 280° West 438 504 34,000  Level FlightAware
04:42PM 38.9600 -92.9750 281° West 437 503 34,000  Level FlightAware
04:43PM 38.9730 -93.0680 280° West 437 503 34,000  Level FlightAware
04:43PM 38.9850 -93.1580 280° West 437 503 34,000  Level FlightAware
04:44PM 38.9970 -93.2440 280° West 438 504 34,000  Level FlightAware
04:45PM 39.0120 -93.3460 281° West 438 504 34,000  Level FlightAware
04:45PM 39.0230 -93.4280 280° West 439 505 34,000  Level FlightAware
04:46PM 39.0350 -93.5200 280° West 440 506 34,000  Level FlightAware
04:46PM 39.0480 -93.6130 280° West 440 506 34,000  Level FlightAware
04:47PM 39.0610 -93.7090 280° West 442 509 34,000  Level FlightAware
04:48PM 39.0720 -93.7920 280° West 443 510 34,000  Level FlightAware
04:48PM 39.0811 -93.8622 280° West 443 510 34,000  Level FlightAware ADS-B
04:48PM 39.0915 -93.9408 280° West 444 511 34,000  Level FlightAware ADS-B
04:49PM 39.1052 -94.0457 280° West 445 512 34,000  Level FlightAware ADS-B
04:50PM 39.1155 -94.1246 280° West 446 513 34,000  Level FlightAware ADS-B
04:50PM 39.1264 -94.2079 280° West 446 513 34,000  Level FlightAware ADS-B
04:50PM 39.1308 -94.2324 283° West 448 516 34,000  Level FlightAware ADS-B
04:51PM 39.1420 -94.2709 291° West 450 518 34,000  Level FlightAware ADS-B
04:51PM 39.1659 -94.3243 300° West 452 520 34,000  Level FlightAware ADS-B
04:51PM 39.2033 -94.3893 307° West 452 520 34,000  Level FlightAware ADS-B
04:52PM 39.2420 -94.4564 307° West 454 522 34,000  Level FlightAware ADS-B
04:53PM 39.2805 -94.5226 307° West 455 524 34,000  Level FlightAware ADS-B
04:53PM 39.3185 -94.5877 307° West 455 524 34,000  Level FlightAware ADS-B
04:54PM 39.3575 -94.6550 307° West 455 524 34,000  Level FlightAware ADS-B
04:54PM 39.3956 -94.7209 307° West 454 522 34,000  Level FlightAware ADS-B
04:55PM 39.4398 -94.7974 307° West 455 524 34,000  Level FlightAware ADS-B
04:55PM 39.4847 -94.8754 307° West 454 522 34,000  Level FlightAware ADS-B
04:56PM 39.5250 -94.9457 307° West 454 522 34,000  Level FlightAware ADS-B
04:56PM 39.5658 -95.0172 307° West 453 521 34,000  Level FlightAware ADS-B
04:57PM 39.6037 -95.0833 307° West 453 521 34,000  Level FlightAware ADS-B
04:57PM 39.6416 -95.1498 307° West 453 521 34,000  Level FlightAware ADS-B
04:58PM 39.6794 -95.2163 306° West 453 521 34,000  Level FlightAware ADS-B
04:58PM 39.7173 -95.2831 306° West 453 521 34,000  Level FlightAware ADS-B
04:59PM 39.7554 -95.3504 306° West 453 521 34,000  Level FlightAware ADS-B
04:59PM 39.7934 -95.4177 306° West 452 520 34,000  Level FlightAware ADS-B
05:00PM 39.8307 -95.4837 306° West 452 520 34,000  Level FlightAware ADS-B
05:00PM 39.8699 -95.5533 306° West 452 520 34,000  Level FlightAware ADS-B
05:01PM 39.9094 -95.6236 306° West 453 521 34,000  Level FlightAware ADS-B
05:01PM 39.9464 -95.6897 306° West 452 520 34,000  Level FlightAware ADS-B
05:02PM 39.9841 -95.7571 306° West 452 520 34,000  Level FlightAware ADS-B
05:03PM 40.0494 -95.8741 306° West 452 520 34,000  Level FlightAware ADS-B
05:03PM 40.0965 -95.9589 306° West 453 521 34,000  Level FlightAware ADS-B
05:04PM 40.1353 -96.0289 306° West 453 521 34,000  Level FlightAware ADS-B
05:04PM 40.1721 -96.0955 306° West 453 521 34,000  Level FlightAware ADS-B
05:05PM 40.2095 -96.1632 306° West 453 521 34,000  Level FlightAware ADS-B
05:06PM 40.2470 -96.2312 306° West 452 520 34,000  Level FlightAware ADS-B
05:06PM 40.2846 -96.2995 306° West 450 518 34,000  Level FlightAware ADS-B
05:07PM 40.3244 -96.3723 306° West 452 520 34,000  Level FlightAware ADS-B
05:07PM 40.3610 -96.4391 306° West 451 519 34,000  Level FlightAware ADS-B
05:08PM 40.3987 -96.5081 306° West 452 520 34,000  Level FlightAware ADS-B
05:08PM 40.4353 -96.5753 306° West 452 520 34,000  Level FlightAware ADS-B
05:09PM 40.4720 -96.6427 306° West 452 520 34,000  Level FlightAware ADS-B
05:09PM 40.5087 -96.7103 306° West 452 520 34,000  Level FlightAware ADS-B
05:10PM 40.5451 -96.7775 305° West 451 519 34,000  Level FlightAware ADS-B
05:10PM 40.5828 -96.8476 305° West 450 518 34,000  Level FlightAware ADS-B
05:11PM 40.6190 -96.9149 305° West 451 519 34,000  Level FlightAware ADS-B
05:11PM 40.6566 -96.9847 305° West 451 519 34,000  Level FlightAware ADS-B
05:12PM 40.6925 -97.0518 305° West 449 517 34,000  Level FlightAware ADS-B
05:12PM 40.7292 -97.1199 305° West 449 517 34,000  Level FlightAware ADS-B
05:13PM 40.7652 -97.1874 305° West 449 517 34,000  Level FlightAware ADS-B
05:13PM 40.8077 -97.2673 305° West 449 517 34,000  Level FlightAware ADS-B
05:14PM 40.8440 -97.3355 305° West 449 517 34,000  Level FlightAware ADS-B
05:14PM 40.8798 -97.4030 305° West 449 517 34,000  Level FlightAware ADS-B
05:15PM 40.9163 -97.4718 305° West 449 517 34,000  Level FlightAware ADS-B
05:15PM 40.9536 -97.5424 305° West 449 517 34,000  Level FlightAware ADS-B
05:16PM 40.9896 -97.6109 305° West 449 517 34,000  Level FlightAware ADS-B
05:16PM 41.0270 -97.6821 305° West 450 518 34,000  Level FlightAware ADS-B
05:17PM 41.0795 -97.7821 305° West 450 518 34,000  Level FlightAware ADS-B
05:18PM 41.1196 -97.8589 305° West 449 517 34,000  Level FlightAware ADS-B
05:18PM 41.1649 -97.9457 305° West 449 517 34,000  Level FlightAware ADS-B
05:19PM 41.2015 -98.0162 305° West 447 514 34,000  Level FlightAware ADS-B
05:19PM 41.2390 -98.0884 305° West 447 514 34,000  Level FlightAware ADS-B
05:20PM 41.2751 -98.1582 305° West 445 512 34,000  Level FlightAware ADS-B
05:20PM 41.3101 -98.2260 305° West 444 511 34,000  Level FlightAware ADS-B
05:21PM 41.3456 -98.2949 304° West 443 510 34,000  Level FlightAware ADS-B
05:22PM 41.3987 -98.3912 306° West 444 511 34,000  Level FlightAware ADS-B
05:22PM 41.4379 -98.4570 308° West 444 511 34,000  Level FlightAware ADS-B
05:23PM 41.4772 -98.5225 309° West 443 510 34,000  Level FlightAware ADS-B
05:23PM 41.5158 -98.5869 309° West 443 510 34,000  Level FlightAware ADS-B
05:24PM 41.5659 -98.6706 309° West 443 510 34,000  Level FlightAware ADS-B
05:24PM 41.5930 -98.7170 308° West 443 510 34,000  Level FlightAware
05:24PM 41.6137 -98.7507 309° West 443 510 34,000  Level FlightAware ADS-B
05:25PM 41.6852 -98.8712 308° West 445 512 34,000  Level FlightAware ADS-B
05:26PM 41.7245 -98.9378 308° West 444 511 34,000  Level FlightAware ADS-B
05:26PM 41.7630 -99.0028 308° West 444 511 34,000  Level FlightAware ADS-B
05:27PM 41.8020 -99.0689 308° West 444 511 34,000  Level FlightAware ADS-B
05:27PM 41.8401 -99.1338 308° West 444 511 34,000  Level FlightAware ADS-B
05:28PM 41.8280 -99.1200 140° Southeast 443 510 34,000  Level FlightAware
05:28PM 41.8640 -99.1820 308° West 443 510 34,000  Level FlightAware
05:29PM 41.9030 -99.2490 308° West 443 510 34,000  Level FlightAware
05:29PM 41.9917 -99.3931 310° West 442 509 34,000  Level FlightAware ADS-B
05:30PM 42.0296 -99.4583 308° West 442 509 34,000  Level FlightAware ADS-B
05:30PM 42.0695 -99.5270 308° West 443 510 34,000  Level FlightAware ADS-B
05:31PM 42.1086 -99.5944 308° West 444 511 34,000  Level FlightAware ADS-B
05:31PM 42.1472 -99.6613 308° West 445 512 34,000  Level FlightAware ADS-B
05:32PM 42.1910 -99.7372 308° West 445 512 34,000  Level FlightAware ADS-B
05:33PM 42.1380 -99.6540 131° Southeast 443 510 34,000  Level FlightAware
05:33PM 42.1760 -99.7200 308° West 443 510 34,000  Level FlightAware
05:34PM 42.3222 -99.9669 308° West 446 513 34,000  Level Minneapolis Center
05:35PM 42.3964 -100.1006 307° West 445 512 34,000  Level Minneapolis Center
05:36PM 42.4722 -100.2311 308° West 444 511 34,000  Level Minneapolis Center
05:37PM 42.5517 -100.3711 308° West 443 510 34,000  Level Denver Center
05:38PM 42.6339 -100.5181 307° West 440 506 34,000  Level Denver Center
05:39PM 42.7056 -100.6442 308° West 440 506 34,000  Level Denver Center
05:40PM 42.7864 -100.7906 307° West 440 506 34,000  Level Denver Center
05:41PM 42.8611 -100.9239 307° West 441 507 34,000  Level Denver Center
05:42PM 42.9339 -101.0572 307° West 439 505 34,000  Level Denver Center
05:43PM 43.0064 -101.1900 307° West 436 502 34,000  Level Denver Center
05:44PM 43.0794 -101.3231 307° West 437 503 34,000  Level Denver Center
05:45PM 43.1522 -101.4556 307° West 435 501 34,000  Level Denver Center
05:46PM 43.2378 -101.6158 306° West 435 501 34,000  Level Denver Center
05:47PM 43.3097 -101.7486 307° West 433 498 34,000  Level Denver Center
05:48PM 43.3817 -101.8817 307° West 434 499 34,000  Level Denver Center
05:49PM 43.4531 -102.0150 306° West 432 497 34,000  Level Denver Center
05:50PM 43.5333 -102.1669 306° West 430 495 34,000  Level Denver Center
05:51PM 43.6025 -102.2944 307° West 434 499 34,000  Level Denver Center
05:52PM 43.6800 -102.4431 306° West 431 496 34,000  Level Denver Center
05:53PM 43.7358 -102.5494 306° West 430 495 34,000  Level Denver Center
05:55PM 43.8133 -102.6978 306° West 428 493 34,000  Level Denver Center
05:56PM 43.8903 -102.8469 306° West 428 493 34,000  Level Denver Center
05:57PM 43.9464 -102.9556 306° West 431 496 34,000  Level Denver Center
05:58PM 43.9436 -103.1411 269° West 394 453 34,000  Level Denver Center
05:59PM 43.9108 -103.2775 252° West 390 449 34,000  Level Denver Center
06:00PM 43.8739 -103.4131 249° West 393 452 34,000  Level Denver Center
06:01PM 43.8319 -103.5717 250° West 393 452 34,000  Level Denver Center
06:02PM 43.7969 -103.7103 251° West 397 457 34,000  Level Denver Center
06:03PM 43.7539 -103.8711 250° West 398 458 34,000  Level Denver Center
06:04PM 43.7122 -104.0347 251° West 404 465 34,000  Level Denver Center
06:05PM 43.6619 -104.2197 249° West 405 466 34,000  Level Denver Center
06:06PM 43.6258 -104.3567 250° West 401 461 34,000  Level Denver Center
06:07PM 43.5828 -104.5172 250° West 401 461 34,000  Level Denver Center
06:08PM 43.5464 -104.6531 250° West 397 457 34,000  Level Denver Center
06:09PM 43.4975 -104.8347 250° West 398 458 34,000  Level Denver Center
06:10PM 43.4597 -104.9708 249° West 398 458 34,000  Level Denver Center
06:11PM 43.4161 -105.1306 249° West 400 460 34,000  Level Denver Center
06:13PM 43.3783 -105.2681 249° West 402 463 34,000  Level Denver Center
06:14PM 43.3331 -105.4289 249° West 405 466 34,000  Level Denver Center
06:15PM 43.2942 -105.5694 249° West 409 471 34,000  Level Denver Center
06:16PM 43.2475 -105.7325 249° West 411 473 34,000  Level Denver Center
06:17PM 43.1942 -105.9175 248° West 410 472 34,000  Level Denver Center
06:18PM 43.1544 -106.0561 249° West 410 472 34,000  Level Denver Center
06:19PM 43.1083 -106.2139 248° West 404 465 34,000  Level Denver Center
06:20PM 43.0689 -106.3500 248° West 402 463 34,000  Level Denver Center
06:21PM 43.0192 -106.5058 246° West 401 461 34,000  Level Denver Center
06:22PM 42.9847 -106.6158 247° West 399 459 34,000  Level Denver Center
06:23PM 42.9372 -106.7703 247° West 396 456 34,000  Level Denver Center
06:24PM 42.8886 -106.9250 247° West 397 457 34,000  Level Denver Center
06:25PM 42.8450 -107.0575 246° West 400 460 34,000  Level Denver Center
06:26PM 42.8053 -107.1883 248° West 394 453 34,000  Level Denver Center
06:27PM 42.7700 -107.3472 253° West 391 450 34,000  Level Denver Center
06:28PM 42.7403 -107.5119 256° West 398 458 34,000  Level Denver Center
06:30PM 42.7050 -107.6967 255° West 397 457 34,000  Level Salt Lake Center
06:31PM 42.6739 -107.8600 256° West 400 460 34,000  Level Salt Lake Center
06:32PM 42.6461 -108.0000 255° West 401 461 34,000  Level Salt Lake Center
06:33PM 42.6158 -108.1667 256° West 406 467 34,000  Level Salt Lake Center
06:34PM 42.5892 -108.3064 256° West 403 464 34,000  Level Salt Lake Center
06:35PM 42.5561 -108.4669 254° West 399 459 34,000  Level Salt Lake Center
06:36PM 42.5286 -108.6067 255° West 402 463 34,000  Level Salt Lake Center
06:37PM 42.5017 -108.7458 255° West 401 461 34,000  Level Salt Lake Center
06:38PM 42.4697 -108.9075 255° West 400 460 34,000  Level Salt Lake Center
06:39PM 42.4406 -109.0439 254° West 397 457 34,000  Level Salt Lake Center
06:40PM 42.4086 -109.2056 255° West 399 459 34,000  Level Salt Lake Center
06:41PM 42.3792 -109.3439 254° West 401 461 34,000  Level Salt Lake Center
06:42PM 42.3464 -109.5044 255° West 399 459 34,000  Level Salt Lake Center
06:43PM 42.3172 -109.6422 254° West 400 460 34,000  Level Salt Lake Center
06:44PM 42.2825 -109.8039 254° West 402 463 34,000  Level Salt Lake Center
06:45PM 42.2547 -109.9431 255° West 403 464 34,000 -240 Level Salt Lake Center
06:46PM 42.2239 -110.0792 253° West 400 460 33,600 -600 Descending Salt Lake Center
06:52PM 42.0280 -110.9810 253° West 405 466 30,000 -600 Descending FlightAware
06:53PM 42.0120 -111.0510 253° West 408 470 30,000  Level FlightAware
06:53PM 41.9910 -111.1440 253° West 409 471 30,000  Level FlightAware
06:54PM 41.9730 -111.2250 253° West 409 471 30,000  Level FlightAware
06:54PM 41.9632 -111.2690 253° West 410 472 30,000  Level FlightAware ADS-B
06:55PM 41.9458 -111.3450 253° West 409 471 30,000  Level FlightAware ADS-B
06:55PM 41.9277 -111.4250 253° West 408 470 30,000  Level FlightAware ADS-B
06:56PM 41.9099 -111.5030 253° West 408 470 30,000 -300 Level FlightAware ADS-B
06:56PM 41.8930 -111.5780 253° West 399 459 29,700 -840 Descending FlightAware
06:56PM 41.8858 -111.6080 252° West 407 468 29,400 -1,920 Descending FlightAware ADS-B
06:57PM 41.8692 -111.6800 253° West 407 468 28,200 -2,340 Descending FlightAware ADS-B
06:58PM 41.8408 -111.8040 253° West 393 452 26,200 -2,340 Descending FlightAware ADS-B
06:58PM 41.8226 -111.8820 253° West 392 451 25,000 -2,100 Descending FlightAware ADS-B
06:59PM 41.8092 -111.9400 253° West 389 448 24,100 -2,160 Descending FlightAware ADS-B
06:59PM 41.8059 -111.9510 248° West 388 447 23,900 -2,160 Descending FlightAware ADS-B
06:59PM 41.7972 -111.9710 240° Southwest 387 445 23,600 -1,920 Descending FlightAware ADS-B
06:59PM 41.7890 -111.9830 227° Southwest 386 444 23,400 -2,160 Descending FlightAware ADS-B
06:59PM 41.7797 -111.9940 221° Southwest 385 443 23,100 -2,280 Descending FlightAware ADS-B
06:59PM 41.7664 -112.0050 212° Southwest 385 443 22,800 -1,980 Descending FlightAware ADS-B
07:00PM 41.6898 -112.0260 192° South 381 438 21,400 -1,980 Descending FlightAware ADS-B
07:01PM 41.6377 -112.0340 187° South 379 436 20,400 -1,980 Descending FlightAware ADS-B
07:01PM 41.5716 -112.0440 186° South 377 434 19,200 -1,620 Descending FlightAware ADS-B
07:02PM 41.5224 -112.0520 187° South 367 422 18,600 -960 Descending FlightAware ADS-B
07:03PM 41.4864 -112.0580 187° South 366 421 18,100 -1,320 Descending FlightAware ADS-B
07:03PM 41.3789 -112.0820 190° South 360 414 16,800 -1,500 Descending FlightAware ADS-B
07:04PM 41.3150 -112.0960 189° South 350 403 16,000 -1,140 Descending FlightAware
07:04PM 41.2962 -112.1000 189° South 350 403 15,800 -1,140 Descending FlightAware ADS-B
07:05PM 41.2010 -112.1200 189° South 339 390 14,700 -1,080 Descending FlightAware
07:06PM 41.1500 -112.1310 189° South 338 389 14,200 -480 Descending FlightAware
07:06PM 41.1576 -112.1290 11° North 341 392 14,300 -840 Climbing FlightAware ADS-B
07:06PM 41.0815 -112.1440 188° South 336 387 13,600 -1,500 Descending FlightAware ADS-B
07:07PM 41.0484 -112.1410 176° South 334 384 13,100 -900 Descending FlightAware ADS-B
07:07PM 41.0282 -112.1370 172° South 331 381 12,800 -1,320 Descending FlightAware ADS-B
07:08PM 40.9350 -112.1170 171° South 316 364 11,500 -240 Descending FlightAware
07:08PM 41.0133 -112.1340 351° North 328 377 12,600 1,920 Climbing FlightAware ADS-B
07:09PM 41.0040 -112.1320 171° South 326 375 12,500 -4,620 Descending FlightAware ADS-B
07:09PM 40.9034 -112.1100 171° South 310 357 11,000 -2,700 Descending FlightAware ADS-B
07:09PM 40.8477 -112.1030 175° South 271 312 11,000  Level FlightAware ADS-B
07:10PM 40.8108 -112.0980 174° South 244 281 11,000  Level FlightAware ADS-B
07:10PM 40.7850 -112.0960 177° South 226 260 11,000 -780 Level FlightAware ADS-B
07:11PM 40.7513 -112.0920 175° South 224 258 10,300 -1,320 Descending FlightAware ADS-B
07:11PM 40.7371 -112.0900 174° South 225 259 10,000 -1,620 Descending FlightAware ADS-B
07:11PM 40.7208 -112.0880 175° South 224 258 9,500 -2,100 Descending FlightAware ADS-B
07:11PM 40.7039 -112.0860 175° South 223 257 8,900 -2,220 Descending FlightAware ADS-B
07:12PM 40.6818 -112.0840 176° South 225 259 8,100 -1,740 Descending FlightAware ADS-B
07:12PM 40.6743 -112.0830 174° South 224 258 7,800 -660 Descending FlightAware ADS-B
07:12PM 40.6717 -112.0820 164° South 224 258 7,700 -3,000 Descending FlightAware ADS-B
07:12PM 40.6377 -112.0660 160° South 219 252 6,500 -9,780 Descending FlightAware ADS-B
07:12PM 40.6356 -112.0620 125° Southeast 217 250 6,400 -1,500 Descending FlightAware ADS-B
07:13PM 40.6336 -112.0570 118° Southeast 214 246 6,300 -1,380 Descending FlightAware ADS-B
07:13PM 40.6325 -112.0520 106° East 211 243 6,200 -1,380 Descending FlightAware ADS-B
07:13PM 40.6319 -112.0460 98° East 208 239 6,100 -720 Descending FlightAware ADS-B
07:13PM 40.6320 -112.0420 88° East 204 235 6,100  Level FlightAware ADS-B
07:13PM 40.6324 -112.0360 85° East 200 230 6,100  Level FlightAware ADS-B
07:13PM 40.6333 -112.0320 73° East 198 228 6,100  Level FlightAware ADS-B
07:13PM 40.6382 -112.0140 70° East 197 227 6,100  Level FlightAware ADS-B
07:13PM 40.6418 -112.0070 56° Northeast 196 226 6,100  Level FlightAware ADS-B
07:14PM 40.6499 -111.9940 51° Northeast 181 208 6,100  Level FlightAware ADS-B
07:14PM 40.6549 -111.9870 47° Northeast 174 200 6,100  Level FlightAware ADS-B
07:14PM 40.6571 -111.9850 35° Northeast 172 198 6,100  Level FlightAware ADS-B
07:14PM 40.6620 -111.9810 32° Northeast 169 194 6,100  Level FlightAware ADS-B
07:14PM 40.6646 -111.9800 16° North 169 194 6,100  Level FlightAware ADS-B
07:14PM 40.6674 -111.9800 360° North 169 194 6,100  Level FlightAware ADS-B
07:14PM 40.6698 -111.9800 360° North 169 194 6,100  Level FlightAware ADS-B
07:14PM 40.6750 -111.9820 344° North 169 194 6,100 -780 Level FlightAware ADS-B
07:15PM 40.6999 -111.9870 351° North 169 194 5,600 -780 Descending FlightAware ADS-B
07:15PM 40.7042 -111.9870 360° North 153 176 5,600 -720 Level FlightAware ADS-B
07:15PM 40.7240 -111.9900 353° North 147 169 5,200 -840 Descending FlightAware ADS-B
07:16PM 40.7344 -111.9910 356° North 152 175 5,000 -540 Descending FlightAware ADS-B
07:16PM 40.7428 -111.9920 355° North 153 176 4,900 -480 Descending FlightAware ADS-B
07:16PM 40.7577 -111.9940 354° North 149 171 4,600 -540 Descending FlightAware ADS-B
07:17PM 40.7872 -111.9970 356° North 115 132 -13,200 Descending FlightAware ADS-B